sensor_id;sensor_type;location;lat;lon;timestamp;P1;durP1;ratioP1;P2;durP2;ratioP2
13571;SDS011;6857;53.484;10.216;2022-07-04T00:02:25;6.87;;;2.60;;
13571;SDS011;6857;53.484;10.216;2022-07-04T00:04:51;5.03;;;2.77;;
13571;SDS011;6857;53.484;10.216;2022-07-04T00:07:16;6.37;;;2.70;;
13571;SDS011;6857;53.484;10.216;2022-07-04T00:09:42;7.77;;;2.83;;
13571;SDS011;6857;53.484;10.216;2022-07-04T00:12:08;4.13;;;2.70;;
13571;SDS011;6857;53.484;10.216;2022-07-04T00:14:34;7.30;;;2.80;;
13571;SDS011;6857;53.484;10.216;2022-07-04T00:16:59;3.93;;;2.80;;
13571;SDS011;6857;53.484;10.216;2022-07-04T00:19:25;4.37;;;2.80;;
13571;SDS011;6857;53.484;10.216;2022-07-04T00:21:50;7.47;;;3.10;;
13571;SDS011;6857;53.484;10.216;2022-07-04T00:24:16;6.80;;;2.93;;
13571;SDS011;6857;53.484;10.216;2022-07-04T00:26:41;4.23;;;2.80;;
13571;SDS011;6857;53.484;10.216;2022-07-04T00:29:07;3.93;;;2.70;;
13571;SDS011;6857;53.484;10.216;2022-07-04T00:31:32;6.17;;;2.93;;
13571;SDS011;6857;53.484;10.216;2022-07-04T00:33:58;5.37;;;2.70;;
13571;SDS011;6857;53.484;10.216;2022-07-04T00:36:24;7.17;;;2.90;;
13571;SDS011;6857;53.484;10.216;2022-07-04T00:38:50;4.83;;;2.77;;
13571;SDS011;6857;53.484;10.216;2022-07-04T00:41:15;6.03;;;2.57;;
13571;SDS011;6857;53.484;10.216;2022-07-04T00:43:41;7.13;;;2.87;;
13571;SDS011;6857;53.484;10.216;2022-07-04T00:46:06;6.47;;;2.67;;
13571;SDS011;6857;53.484;10.216;2022-07-04T00:48:32;7.97;;;2.83;;
13571;SDS011;6857;53.484;10.216;2022-07-04T00:50:58;7.47;;;3.20;;
13571;SDS011;6857;53.484;10.216;2022-07-04T00:53:23;9.13;;;3.47;;
13571;SDS011;6857;53.484;10.216;2022-07-04T00:55:50;5.40;;;3.23;;
13571;SDS011;6857;53.484;10.216;2022-07-04T00:58:19;8.27;;;3.30;;
13571;SDS011;6857;53.484;10.216;2022-07-04T01:00:46;5.60;;;3.07;;
13571;SDS011;6857;53.484;10.216;2022-07-04T01:03:12;7.90;;;3.43;;
13571;SDS011;6857;53.484;10.216;2022-07-04T01:05:38;8.77;;;3.13;;
13571;SDS011;6857;53.484;10.216;2022-07-04T01:08:05;7.73;;;3.70;;
13571;SDS011;6857;53.484;10.216;2022-07-04T01:10:31;9.43;;;3.90;;
13571;SDS011;6857;53.484;10.216;2022-07-04T01:12:57;8.33;;;3.90;;
13571;SDS011;6857;53.484;10.216;2022-07-04T01:15:22;7.67;;;4.23;;
13571;SDS011;6857;53.484;10.216;2022-07-04T01:17:48;8.97;;;4.67;;
13571;SDS011;6857;53.484;10.216;2022-07-04T01:20:15;8.43;;;4.60;;
13571;SDS011;6857;53.484;10.216;2022-07-04T01:22:41;7.20;;;4.87;;
13571;SDS011;6857;53.484;10.216;2022-07-04T01:25:07;9.90;;;5.23;;
13571;SDS011;6857;53.484;10.216;2022-07-04T01:27:33;8.00;;;4.83;;
13571;SDS011;6857;53.484;10.216;2022-07-04T01:29:59;10.47;;;5.03;;
13571;SDS011;6857;53.484;10.216;2022-07-04T01:32:25;7.90;;;5.27;;
13571;SDS011;6857;53.484;10.216;2022-07-04T01:34:51;11.60;;;5.00;;
13571;SDS011;6857;53.484;10.216;2022-07-04T01:37:16;7.40;;;5.20;;
13571;SDS011;6857;53.484;10.216;2022-07-04T01:39:42;8.13;;;5.57;;
13571;SDS011;6857;53.484;10.216;2022-07-04T01:42:08;8.40;;;5.60;;
13571;SDS011;6857;53.484;10.216;2022-07-04T01:44:34;12.03;;;5.77;;
13571;SDS011;6857;53.484;10.216;2022-07-04T01:47:00;10.13;;;5.87;;
13571;SDS011;6857;53.484;10.216;2022-07-04T01:49:26;11.60;;;6.10;;
13571;SDS011;6857;53.484;10.216;2022-07-04T01:51:52;9.93;;;6.30;;
13571;SDS011;6857;53.484;10.216;2022-07-04T01:54:17;9.90;;;6.43;;
13571;SDS011;6857;53.484;10.216;2022-07-04T01:56:43;8.97;;;6.23;;
13571;SDS011;6857;53.484;10.216;2022-07-04T01:59:09;11.43;;;6.53;;
13571;SDS011;6857;53.484;10.216;2022-07-04T02:01:35;11.17;;;6.97;;
13571;SDS011;6857;53.484;10.216;2022-07-04T02:04:02;8.77;;;6.80;;
13571;SDS011;6857;53.484;10.216;2022-07-04T02:06:29;11.73;;;7.10;;
13571;SDS011;6857;53.484;10.216;2022-07-04T02:08:55;9.57;;;6.50;;
13571;SDS011;6857;53.484;10.216;2022-07-04T02:11:40;10.07;;;7.03;;
13571;SDS011;6857;53.484;10.216;2022-07-04T02:14:24;10.43;;;7.53;;
13571;SDS011;6857;53.484;10.216;2022-07-04T02:16:49;13.37;;;8.20;;
13571;SDS011;6857;53.484;10.216;2022-07-04T02:19:15;12.63;;;8.70;;
13571;SDS011;6857;53.484;10.216;2022-07-04T02:21:41;9.17;;;7.27;;
13571;SDS011;6857;53.484;10.216;2022-07-04T02:24:06;12.40;;;7.57;;
13571;SDS011;6857;53.484;10.216;2022-07-04T02:26:32;13.63;;;9.33;;
13571;SDS011;6857;53.484;10.216;2022-07-04T02:28:57;13.53;;;9.33;;
13571;SDS011;6857;53.484;10.216;2022-07-04T02:31:23;14.87;;;9.83;;
13571;SDS011;6857;53.484;10.216;2022-07-04T02:33:49;13.70;;;10.73;;
13571;SDS011;6857;53.484;10.216;2022-07-04T02:36:14;16.97;;;11.07;;
13571;SDS011;6857;53.484;10.216;2022-07-04T02:38:40;14.73;;;11.93;;
13571;SDS011;6857;53.484;10.216;2022-07-04T02:41:05;15.93;;;11.30;;
13571;SDS011;6857;53.484;10.216;2022-07-04T02:43:31;16.20;;;11.17;;
13571;SDS011;6857;53.484;10.216;2022-07-04T02:45:56;16.07;;;12.10;;
13571;SDS011;6857;53.484;10.216;2022-07-04T02:48:22;17.37;;;11.97;;
13571;SDS011;6857;53.484;10.216;2022-07-04T02:50:47;19.67;;;12.40;;
13571;SDS011;6857;53.484;10.216;2022-07-04T02:53:13;19.40;;;11.97;;
13571;SDS011;6857;53.484;10.216;2022-07-04T02:55:38;16.53;;;13.23;;
13571;SDS011;6857;53.484;10.216;2022-07-04T02:58:04;17.33;;;12.90;;
13571;SDS011;6857;53.484;10.216;2022-07-04T03:00:30;15.90;;;13.03;;
13571;SDS011;6857;53.484;10.216;2022-07-04T03:02:55;17.77;;;12.97;;
13571;SDS011;6857;53.484;10.216;2022-07-04T03:05:21;18.83;;;13.23;;
13571;SDS011;6857;53.484;10.216;2022-07-04T03:07:47;19.37;;;13.33;;
13571;SDS011;6857;53.484;10.216;2022-07-04T03:10:12;17.17;;;12.80;;
13571;SDS011;6857;53.484;10.216;2022-07-04T03:12:38;16.87;;;13.40;;
13571;SDS011;6857;53.484;10.216;2022-07-04T03:15:04;17.67;;;13.80;;
13571;SDS011;6857;53.484;10.216;2022-07-04T03:17:29;22.53;;;15.50;;
13571;SDS011;6857;53.484;10.216;2022-07-04T03:19:56;20.17;;;13.47;;
13571;SDS011;6857;53.484;10.216;2022-07-04T03:22:22;19.93;;;14.03;;
13571;SDS011;6857;53.484;10.216;2022-07-04T03:24:47;18.77;;;13.57;;
13571;SDS011;6857;53.484;10.216;2022-07-04T03:27:19;19.30;;;14.70;;
13571;SDS011;6857;53.484;10.216;2022-07-04T03:29:45;15.90;;;12.70;;
13571;SDS011;6857;53.484;10.216;2022-07-04T03:32:11;17.27;;;13.70;;
13571;SDS011;6857;53.484;10.216;2022-07-04T03:34:36;17.70;;;13.00;;
13571;SDS011;6857;53.484;10.216;2022-07-04T03:37:02;15.63;;;13.33;;
13571;SDS011;6857;53.484;10.216;2022-07-04T03:39:27;14.90;;;13.23;;
13571;SDS011;6857;53.484;10.216;2022-07-04T03:41:53;15.63;;;12.87;;
13571;SDS011;6857;53.484;10.216;2022-07-04T03:44:18;18.30;;;13.47;;
13571;SDS011;6857;53.484;10.216;2022-07-04T03:46:44;15.33;;;12.63;;
13571;SDS011;6857;53.484;10.216;2022-07-04T03:49:10;20.17;;;12.77;;
13571;SDS011;6857;53.484;10.216;2022-07-04T03:51:35;14.60;;;12.83;;
13571;SDS011;6857;53.484;10.216;2022-07-04T03:54:01;15.53;;;13.73;;
13571;SDS011;6857;53.484;10.216;2022-07-04T03:56:26;16.17;;;12.77;;
13571;SDS011;6857;53.484;10.216;2022-07-04T03:58:52;16.47;;;13.20;;
13571;SDS011;6857;53.484;10.216;2022-07-04T04:01:18;16.30;;;12.63;;
13571;SDS011;6857;53.484;10.216;2022-07-04T04:03:44;17.27;;;13.70;;
13571;SDS011;6857;53.484;10.216;2022-07-04T04:06:29;17.10;;;13.87;;
13571;SDS011;6857;53.484;10.216;2022-07-04T04:08:55;19.67;;;14.83;;
13571;SDS011;6857;53.484;10.216;2022-07-04T04:11:21;19.93;;;14.90;;
13571;SDS011;6857;53.484;10.216;2022-07-04T04:13:47;19.43;;;15.27;;
13571;SDS011;6857;53.484;10.216;2022-07-04T04:16:12;19.43;;;15.03;;
13571;SDS011;6857;53.484;10.216;2022-07-04T04:18:38;19.37;;;14.90;;
13571;SDS011;6857;53.484;10.216;2022-07-04T04:21:04;22.67;;;16.03;;
13571;SDS011;6857;53.484;10.216;2022-07-04T04:23:30;21.87;;;16.27;;
13571;SDS011;6857;53.484;10.216;2022-07-04T04:25:56;21.53;;;16.23;;
13571;SDS011;6857;53.484;10.216;2022-07-04T04:28:21;19.50;;;15.50;;
13571;SDS011;6857;53.484;10.216;2022-07-04T04:30:47;21.43;;;15.73;;
13571;SDS011;6857;53.484;10.216;2022-07-04T04:33:13;20.13;;;15.57;;
13571;SDS011;6857;53.484;10.216;2022-07-04T04:35:39;22.37;;;18.17;;
13571;SDS011;6857;53.484;10.216;2022-07-04T04:38:04;17.00;;;13.90;;
13571;SDS011;6857;53.484;10.216;2022-07-04T04:40:30;17.57;;;13.47;;
13571;SDS011;6857;53.484;10.216;2022-07-04T04:42:56;16.50;;;11.87;;
13571;SDS011;6857;53.484;10.216;2022-07-04T04:45:21;16.40;;;11.60;;
13571;SDS011;6857;53.484;10.216;2022-07-04T04:47:47;12.83;;;10.50;;
13571;SDS011;6857;53.484;10.216;2022-07-04T04:50:12;10.93;;;9.00;;
13571;SDS011;6857;53.484;10.216;2022-07-04T04:52:39;11.83;;;9.77;;
13571;SDS011;6857;53.484;10.216;2022-07-04T04:55:06;12.20;;;9.03;;
13571;SDS011;6857;53.484;10.216;2022-07-04T04:57:32;10.50;;;8.43;;
13571;SDS011;6857;53.484;10.216;2022-07-04T04:59:58;12.00;;;9.50;;
13571;SDS011;6857;53.484;10.216;2022-07-04T05:02:24;15.03;;;10.37;;
13571;SDS011;6857;53.484;10.216;2022-07-04T05:04:50;14.57;;;10.17;;
13571;SDS011;6857;53.484;10.216;2022-07-04T05:07:15;18.23;;;10.73;;
13571;SDS011;6857;53.484;10.216;2022-07-04T05:09:42;14.77;;;10.40;;
13571;SDS011;6857;53.484;10.216;2022-07-04T05:12:07;18.83;;;10.37;;
13571;SDS011;6857;53.484;10.216;2022-07-04T05:14:33;15.27;;;10.37;;
13571;SDS011;6857;53.484;10.216;2022-07-04T05:16:58;12.07;;;9.83;;
13571;SDS011;6857;53.484;10.216;2022-07-04T05:19:24;12.63;;;8.87;;
13571;SDS011;6857;53.484;10.216;2022-07-04T05:21:50;12.00;;;8.93;;
13571;SDS011;6857;53.484;10.216;2022-07-04T05:24:15;12.77;;;8.83;;
13571;SDS011;6857;53.484;10.216;2022-07-04T05:26:41;12.27;;;7.80;;
13571;SDS011;6857;53.484;10.216;2022-07-04T05:29:07;11.00;;;7.43;;
13571;SDS011;6857;53.484;10.216;2022-07-04T05:31:33;11.17;;;6.77;;
13571;SDS011;6857;53.484;10.216;2022-07-04T05:33:59;10.23;;;7.00;;
13571;SDS011;6857;53.484;10.216;2022-07-04T05:36:25;7.07;;;6.27;;
13571;SDS011;6857;53.484;10.216;2022-07-04T05:38:51;9.50;;;6.23;;
13571;SDS011;6857;53.484;10.216;2022-07-04T05:41:17;8.73;;;5.53;;
13571;SDS011;6857;53.484;10.216;2022-07-04T05:43:42;7.60;;;5.23;;
13571;SDS011;6857;53.484;10.216;2022-07-04T05:46:08;6.20;;;3.63;;
13571;SDS011;6857;53.484;10.216;2022-07-04T05:48:34;6.47;;;3.13;;
13571;SDS011;6857;53.484;10.216;2022-07-04T05:51:00;5.63;;;2.80;;
13571;SDS011;6857;53.484;10.216;2022-07-04T05:53:27;8.03;;;2.77;;
13571;SDS011;6857;53.484;10.216;2022-07-04T05:55:52;5.30;;;2.40;;
13571;SDS011;6857;53.484;10.216;2022-07-04T05:58:18;2.97;;;2.60;;
13571;SDS011;6857;53.484;10.216;2022-07-04T06:00:44;5.07;;;2.30;;
13571;SDS011;6857;53.484;10.216;2022-07-04T06:03:09;8.13;;;2.67;;
13571;SDS011;6857;53.484;10.216;2022-07-04T06:05:35;3.70;;;2.03;;
13571;SDS011;6857;53.484;10.216;2022-07-04T06:08:00;5.03;;;2.30;;
13571;SDS011;6857;53.484;10.216;2022-07-04T06:10:26;5.30;;;2.33;;
13571;SDS011;6857;53.484;10.216;2022-07-04T06:12:52;4.53;;;2.07;;
13571;SDS011;6857;53.484;10.216;2022-07-04T06:15:18;4.30;;;1.80;;
13571;SDS011;6857;53.484;10.216;2022-07-04T06:17:44;3.00;;;2.10;;
13571;SDS011;6857;53.484;10.216;2022-07-04T06:20:09;3.40;;;1.70;;
13571;SDS011;6857;53.484;10.216;2022-07-04T06:22:42;4.90;;;1.90;;
13571;SDS011;6857;53.484;10.216;2022-07-04T06:25:10;4.30;;;1.77;;
13571;SDS011;6857;53.484;10.216;2022-07-04T06:27:40;3.70;;;1.47;;
13571;SDS011;6857;53.484;10.216;2022-07-04T06:30:06;4.10;;;1.50;;
13571;SDS011;6857;53.484;10.216;2022-07-04T06:32:42;5.30;;;1.80;;
13571;SDS011;6857;53.484;10.216;2022-07-04T06:35:13;3.17;;;1.60;;
13571;SDS011;6857;53.484;10.216;2022-07-04T06:38:00;2.50;;;1.43;;
13571;SDS011;6857;53.484;10.216;2022-07-04T06:40:26;5.33;;;1.67;;
13571;SDS011;6857;53.484;10.216;2022-07-04T06:42:51;3.13;;;1.43;;
13571;SDS011;6857;53.484;10.216;2022-07-04T06:45:17;3.37;;;1.30;;
13571;SDS011;6857;53.484;10.216;2022-07-04T06:47:43;4.67;;;1.60;;
13571;SDS011;6857;53.484;10.216;2022-07-04T06:50:09;4.77;;;1.50;;
13571;SDS011;6857;53.484;10.216;2022-07-04T06:52:34;4.10;;;1.70;;
13571;SDS011;6857;53.484;10.216;2022-07-04T06:55:00;4.50;;;1.80;;
13571;SDS011;6857;53.484;10.216;2022-07-04T06:57:26;3.90;;;1.43;;
13571;SDS011;6857;53.484;10.216;2022-07-04T06:59:51;4.23;;;1.30;;
13571;SDS011;6857;53.484;10.216;2022-07-04T07:02:17;6.07;;;1.53;;
13571;SDS011;6857;53.484;10.216;2022-07-04T07:04:43;2.93;;;1.33;;
13571;SDS011;6857;53.484;10.216;2022-07-04T07:07:09;1.87;;;1.20;;
13571;SDS011;6857;53.484;10.216;2022-07-04T07:09:34;2.60;;;1.50;;
13571;SDS011;6857;53.484;10.216;2022-07-04T07:12:00;3.90;;;1.40;;
13571;SDS011;6857;53.484;10.216;2022-07-04T07:14:26;5.37;;;1.70;;
13571;SDS011;6857;53.484;10.216;2022-07-04T07:16:52;5.30;;;1.63;;
13571;SDS011;6857;53.484;10.216;2022-07-04T07:19:17;5.47;;;2.10;;
13571;SDS011;6857;53.484;10.216;2022-07-04T07:21:43;6.53;;;1.50;;
13571;SDS011;6857;53.484;10.216;2022-07-04T07:24:08;7.17;;;1.57;;
13571;SDS011;6857;53.484;10.216;2022-07-04T07:26:34;6.07;;;1.40;;
13571;SDS011;6857;53.484;10.216;2022-07-04T07:28:59;4.97;;;1.70;;
13571;SDS011;6857;53.484;10.216;2022-07-04T07:31:25;2.93;;;1.73;;
13571;SDS011;6857;53.484;10.216;2022-07-04T07:33:50;4.60;;;1.40;;
13571;SDS011;6857;53.484;10.216;2022-07-04T07:36:16;4.63;;;1.40;;
13571;SDS011;6857;53.484;10.216;2022-07-04T07:38:42;2.87;;;1.30;;
13571;SDS011;6857;53.484;10.216;2022-07-04T07:41:08;4.37;;;1.20;;
13571;SDS011;6857;53.484;10.216;2022-07-04T07:43:34;4.27;;;1.47;;
13571;SDS011;6857;53.484;10.216;2022-07-04T07:46:01;4.63;;;1.57;;
13571;SDS011;6857;53.484;10.216;2022-07-04T07:48:28;3.93;;;1.30;;
13571;SDS011;6857;53.484;10.216;2022-07-04T07:50:54;2.37;;;1.20;;
13571;SDS011;6857;53.484;10.216;2022-07-04T07:53:19;2.70;;;1.10;;
13571;SDS011;6857;53.484;10.216;2022-07-04T07:55:45;2.47;;;1.20;;
13571;SDS011;6857;53.484;10.216;2022-07-04T07:58:10;2.87;;;1.00;;
13571;SDS011;6857;53.484;10.216;2022-07-04T08:00:36;3.97;;;1.10;;
13571;SDS011;6857;53.484;10.216;2022-07-04T08:03:02;2.57;;;1.27;;
13571;SDS011;6857;53.484;10.216;2022-07-04T08:05:46;4.23;;;1.20;;
13571;SDS011;6857;53.484;10.216;2022-07-04T08:08:12;5.27;;;1.57;;
13571;SDS011;6857;53.484;10.216;2022-07-04T08:10:37;4.90;;;1.67;;
13571;SDS011;6857;53.484;10.216;2022-07-04T08:13:03;3.53;;;1.20;;
13571;SDS011;6857;53.484;10.216;2022-07-04T08:15:30;2.83;;;1.00;;
13571;SDS011;6857;53.484;10.216;2022-07-04T08:17:55;2.80;;;1.07;;
13571;SDS011;6857;53.484;10.216;2022-07-04T08:20:21;3.03;;;1.07;;
13571;SDS011;6857;53.484;10.216;2022-07-04T08:22:47;4.13;;;1.30;;
13571;SDS011;6857;53.484;10.216;2022-07-04T08:25:12;3.80;;;1.37;;
13571;SDS011;6857;53.484;10.216;2022-07-04T08:27:39;2.83;;;1.10;;
13571;SDS011;6857;53.484;10.216;2022-07-04T08:30:05;1.30;;;0.80;;
13571;SDS011;6857;53.484;10.216;2022-07-04T08:32:32;3.47;;;0.87;;
13571;SDS011;6857;53.484;10.216;2022-07-04T08:34:58;1.23;;;0.73;;
13571;SDS011;6857;53.484;10.216;2022-07-04T08:37:24;3.27;;;1.03;;
13571;SDS011;6857;53.484;10.216;2022-07-04T08:39:49;2.70;;;0.90;;
13571;SDS011;6857;53.484;10.216;2022-07-04T08:42:16;1.73;;;1.10;;
13571;SDS011;6857;53.484;10.216;2022-07-04T08:44:44;1.90;;;0.73;;
13571;SDS011;6857;53.484;10.216;2022-07-04T08:47:15;2.30;;;1.00;;
13571;SDS011;6857;53.484;10.216;2022-07-04T08:49:46;4.03;;;1.00;;
13571;SDS011;6857;53.484;10.216;2022-07-04T08:52:23;2.97;;;1.10;;
13571;SDS011;6857;53.484;10.216;2022-07-04T08:55:00;2.53;;;1.10;;
13571;SDS011;6857;53.484;10.216;2022-07-04T08:57:47;2.83;;;1.03;;
13571;SDS011;6857;53.484;10.216;2022-07-04T09:00:32;3.67;;;1.73;;
13571;SDS011;6857;53.484;10.216;2022-07-04T09:02:59;1.77;;;1.10;;
13571;SDS011;6857;53.484;10.216;2022-07-04T09:05:27;1.97;;;1.20;;
13571;SDS011;6857;53.484;10.216;2022-07-04T09:07:53;3.67;;;1.20;;
13571;SDS011;6857;53.484;10.216;2022-07-04T09:10:20;3.63;;;1.07;;
13571;SDS011;6857;53.484;10.216;2022-07-04T09:12:46;1.60;;;0.93;;
13571;SDS011;6857;53.484;10.216;2022-07-04T09:15:12;2.17;;;0.87;;
13571;SDS011;6857;53.484;10.216;2022-07-04T09:17:39;3.77;;;1.03;;
13571;SDS011;6857;53.484;10.216;2022-07-04T09:20:17;2.13;;;1.00;;
13571;SDS011;6857;53.484;10.216;2022-07-04T09:22:45;2.40;;;1.10;;
13571;SDS011;6857;53.484;10.216;2022-07-04T09:25:11;3.03;;;1.00;;
13571;SDS011;6857;53.484;10.216;2022-07-04T09:27:39;1.20;;;1.00;;
13571;SDS011;6857;53.484;10.216;2022-07-04T09:30:14;2.00;;;0.70;;
13571;SDS011;6857;53.484;10.216;2022-07-04T09:32:41;3.27;;;1.00;;
13571;SDS011;6857;53.484;10.216;2022-07-04T09:35:12;3.87;;;1.00;;
13571;SDS011;6857;53.484;10.216;2022-07-04T09:37:43;3.17;;;0.83;;
13571;SDS011;6857;53.484;10.216;2022-07-04T09:40:10;2.00;;;1.17;;
13571;SDS011;6857;53.484;10.216;2022-07-04T09:42:45;3.33;;;1.17;;
13571;SDS011;6857;53.484;10.216;2022-07-04T09:45:11;2.13;;;0.93;;
13571;SDS011;6857;53.484;10.216;2022-07-04T09:47:38;3.73;;;1.10;;
13571;SDS011;6857;53.484;10.216;2022-07-04T09:50:15;2.53;;;0.90;;
13571;SDS011;6857;53.484;10.216;2022-07-04T09:55:28;1.60;;;0.80;;
13571;SDS011;6857;53.484;10.216;2022-07-04T09:58:05;2.87;;;0.70;;
13571;SDS011;6857;53.484;10.216;2022-07-04T10:00:31;1.47;;;0.80;;
13571;SDS011;6857;53.484;10.216;2022-07-04T10:03:21;4.43;;;0.80;;
13571;SDS011;6857;53.484;10.216;2022-07-04T10:05:46;4.47;;;1.20;;
13571;SDS011;6857;53.484;10.216;2022-07-04T10:08:12;4.87;;;1.10;;
13571;SDS011;6857;53.484;10.216;2022-07-04T10:10:38;2.73;;;1.07;;
13571;SDS011;6857;53.484;10.216;2022-07-04T10:13:10;2.27;;;0.80;;
13571;SDS011;6857;53.484;10.216;2022-07-04T10:15:37;2.47;;;0.73;;
13571;SDS011;6857;53.484;10.216;2022-07-04T10:18:05;2.77;;;0.90;;
13571;SDS011;6857;53.484;10.216;2022-07-04T10:20:32;1.07;;;0.60;;
13571;SDS011;6857;53.484;10.216;2022-07-04T10:22:58;2.70;;;0.80;;
13571;SDS011;6857;53.484;10.216;2022-07-04T10:25:24;0.93;;;0.70;;
13571;SDS011;6857;53.484;10.216;2022-07-04T10:27:50;2.03;;;0.87;;
13571;SDS011;6857;53.484;10.216;2022-07-04T10:30:21;1.20;;;0.80;;
13571;SDS011;6857;53.484;10.216;2022-07-04T10:32:59;3.17;;;0.80;;
13571;SDS011;6857;53.484;10.216;2022-07-04T10:38:12;3.73;;;1.20;;
13571;SDS011;6857;53.484;10.216;2022-07-04T10:40:43;1.60;;;1.00;;
13571;SDS011;6857;53.484;10.216;2022-07-04T10:48:49;4.10;;;1.10;;
13571;SDS011;6857;53.484;10.216;2022-07-04T10:51:33;4.10;;;1.10;;
13571;SDS011;6857;53.484;10.216;2022-07-04T10:54:14;4.07;;;0.80;;
13571;SDS011;6857;53.484;10.216;2022-07-04T10:59:26;2.00;;;0.93;;
13571;SDS011;6857;53.484;10.216;2022-07-04T11:07:13;2.97;;;1.30;;
13571;SDS011;6857;53.484;10.216;2022-07-04T11:09:39;1.97;;;1.13;;
13571;SDS011;6857;53.484;10.216;2022-07-04T11:12:06;2.77;;;1.20;;
13571;SDS011;6857;53.484;10.216;2022-07-04T11:14:47;2.10;;;0.53;;
13571;SDS011;6857;53.484;10.216;2022-07-04T11:17:19;1.77;;;0.60;;
13571;SDS011;6857;53.484;10.216;2022-07-04T11:19:46;2.07;;;0.77;;
13571;SDS011;6857;53.484;10.216;2022-07-04T11:22:14;1.30;;;0.63;;
13571;SDS011;6857;53.484;10.216;2022-07-04T11:24:47;1.73;;;0.80;;
13571;SDS011;6857;53.484;10.216;2022-07-04T11:27:13;2.80;;;0.90;;
13571;SDS011;6857;53.484;10.216;2022-07-04T11:29:48;1.93;;;0.90;;
13571;SDS011;6857;53.484;10.216;2022-07-04T11:32:15;1.50;;;0.77;;
13571;SDS011;6857;53.484;10.216;2022-07-04T11:34:40;2.27;;;0.67;;
13571;SDS011;6857;53.484;10.216;2022-07-04T11:37:06;1.23;;;0.70;;
13571;SDS011;6857;53.484;10.216;2022-07-04T11:39:31;1.10;;;0.63;;
13571;SDS011;6857;53.484;10.216;2022-07-04T11:41:57;1.77;;;0.67;;
13571;SDS011;6857;53.484;10.216;2022-07-04T11:44:41;0.90;;;0.77;;
13571;SDS011;6857;53.484;10.216;2022-07-04T11:47:40;1.57;;;0.60;;
13571;SDS011;6857;53.484;10.216;2022-07-04T11:50:13;0.70;;;0.70;;
13571;SDS011;6857;53.484;10.216;2022-07-04T11:55:16;3.50;;;0.80;;
13571;SDS011;6857;53.484;10.216;2022-07-04T11:57:43;1.23;;;0.80;;
13571;SDS011;6857;53.484;10.216;2022-07-04T12:00:17;1.53;;;0.70;;
13571;SDS011;6857;53.484;10.216;2022-07-04T12:02:45;1.87;;;0.67;;
13571;SDS011;6857;53.484;10.216;2022-07-04T12:05:12;1.30;;;0.77;;
13571;SDS011;6857;53.484;10.216;2022-07-04T12:07:39;1.55;;;0.90;;
13571;SDS011;6857;53.484;10.216;2022-07-04T12:10:16;2.08;;;0.60;;
13571;SDS011;6857;53.484;10.216;2022-07-04T12:12:53;1.08;;;0.70;;
13571;SDS011;6857;53.484;10.216;2022-07-04T12:15:21;2.03;;;0.70;;
13571;SDS011;6857;53.484;10.216;2022-07-04T12:17:51;1.02;;;0.65;;
13571;SDS011;6857;53.484;10.216;2022-07-04T12:20:19;1.50;;;0.68;;
13571;SDS011;6857;53.484;10.216;2022-07-04T12:22:52;1.83;;;0.70;;
13571;SDS011;6857;53.484;10.216;2022-07-04T12:25:22;2.45;;;0.60;;
13571;SDS011;6857;53.484;10.216;2022-07-04T12:30:29;0.50;;;0.40;;
13571;SDS011;6857;53.484;10.216;2022-07-04T12:32:57;1.70;;;0.70;;
13571;SDS011;6857;53.484;10.216;2022-07-04T12:38:11;1.98;;;1.00;;
13571;SDS011;6857;53.484;10.216;2022-07-04T12:40:48;2.42;;;0.70;;
13571;SDS011;6857;53.484;10.216;2022-07-04T12:43:15;6.22;;;1.00;;
13571;SDS011;6857;53.484;10.216;2022-07-04T12:45:42;1.95;;;0.77;;
13571;SDS011;6857;53.484;10.216;2022-07-04T12:48:16;2.25;;;0.90;;
13571;SDS011;6857;53.484;10.216;2022-07-04T12:50:43;2.20;;;1.00;;
13571;SDS011;6857;53.484;10.216;2022-07-04T12:53:09;1.90;;;0.90;;
13571;SDS011;6857;53.484;10.216;2022-07-04T12:55:36;1.90;;;0.90;;
13571;SDS011;6857;53.484;10.216;2022-07-04T12:58:06;2.60;;;0.90;;
13571;SDS011;6857;53.484;10.216;2022-07-04T13:00:32;1.77;;;1.03;;
13571;SDS011;6857;53.484;10.216;2022-07-04T13:02:57;1.63;;;0.90;;
13571;SDS011;6857;53.484;10.216;2022-07-04T13:05:23;3.90;;;1.15;;
13571;SDS011;6857;53.484;10.216;2022-07-04T13:07:48;3.78;;;1.30;;
13571;SDS011;6857;53.484;10.216;2022-07-04T13:10:14;1.05;;;0.80;;
13571;SDS011;6857;53.484;10.216;2022-07-04T13:12:40;1.88;;;0.90;;
13571;SDS011;6857;53.484;10.216;2022-07-04T13:15:05;3.28;;;1.23;;
13571;SDS011;6857;53.484;10.216;2022-07-04T13:17:34;2.00;;;0.68;;
13571;SDS011;6857;53.484;10.216;2022-07-04T13:20:00;2.20;;;0.90;;
13571;SDS011;6857;53.484;10.216;2022-07-04T13:22:26;3.88;;;1.35;;
13571;SDS011;6857;53.484;10.216;2022-07-04T13:24:52;1.48;;;1.05;;
13571;SDS011;6857;53.484;10.216;2022-07-04T13:27:18;2.22;;;0.98;;
13571;SDS011;6857;53.484;10.216;2022-07-04T13:29:44;3.08;;;0.80;;
13571;SDS011;6857;53.484;10.216;2022-07-04T13:32:10;1.95;;;0.88;;
13571;SDS011;6857;53.484;10.216;2022-07-04T13:34:36;2.15;;;0.82;;
13571;SDS011;6857;53.484;10.216;2022-07-04T13:37:02;2.97;;;1.05;;
13571;SDS011;6857;53.484;10.216;2022-07-04T13:39:28;0.88;;;0.80;;
13571;SDS011;6857;53.484;10.216;2022-07-04T13:41:54;2.20;;;0.90;;
13571;SDS011;6857;53.484;10.216;2022-07-04T13:44:20;1.67;;;1.00;;
13571;SDS011;6857;53.484;10.216;2022-07-04T13:46:45;3.75;;;1.15;;
13571;SDS011;6857;53.484;10.216;2022-07-04T13:49:11;3.25;;;1.00;;
13571;SDS011;6857;53.484;10.216;2022-07-04T13:51:37;2.15;;;1.00;;
13571;SDS011;6857;53.484;10.216;2022-07-04T13:54:04;2.28;;;1.15;;
13571;SDS011;6857;53.484;10.216;2022-07-04T13:56:30;3.70;;;0.95;;
13571;SDS011;6857;53.484;10.216;2022-07-04T13:58:55;2.88;;;1.08;;
13571;SDS011;6857;53.484;10.216;2022-07-04T14:01:21;1.35;;;0.90;;
13571;SDS011;6857;53.484;10.216;2022-07-04T14:03:47;4.15;;;1.35;;
13571;SDS011;6857;53.484;10.216;2022-07-04T14:06:14;3.40;;;0.70;;
13571;SDS011;6857;53.484;10.216;2022-07-04T14:08:42;2.45;;;1.02;;
13571;SDS011;6857;53.484;10.216;2022-07-04T14:11:07;1.75;;;0.90;;
13571;SDS011;6857;53.484;10.216;2022-07-04T14:13:33;3.13;;;1.27;;
13571;SDS011;6857;53.484;10.216;2022-07-04T14:15:59;3.08;;;1.00;;
13571;SDS011;6857;53.484;10.216;2022-07-04T14:18:25;3.00;;;1.20;;
13571;SDS011;6857;53.484;10.216;2022-07-04T14:20:51;4.78;;;1.20;;
13571;SDS011;6857;53.484;10.216;2022-07-04T14:23:16;3.05;;;1.20;;
13571;SDS011;6857;53.484;10.216;2022-07-04T14:26:01;4.93;;;1.23;;
13571;SDS011;6857;53.484;10.216;2022-07-04T14:28:28;1.30;;;0.90;;
13571;SDS011;6857;53.484;10.216;2022-07-04T14:30:53;4.25;;;0.98;;
13571;SDS011;6857;53.484;10.216;2022-07-04T14:33:19;2.27;;;0.90;;
13571;SDS011;6857;53.484;10.216;2022-07-04T14:35:44;2.63;;;1.05;;
13571;SDS011;6857;53.484;10.216;2022-07-04T14:38:10;3.42;;;1.45;;
13571;SDS011;6857;53.484;10.216;2022-07-04T14:40:35;3.88;;;1.27;;
13571;SDS011;6857;53.484;10.216;2022-07-04T14:43:03;2.03;;;0.95;;
13571;SDS011;6857;53.484;10.216;2022-07-04T14:45:30;8.05;;;1.90;;
13571;SDS011;6857;53.484;10.216;2022-07-04T14:47:55;3.50;;;1.15;;
13571;SDS011;6857;53.484;10.216;2022-07-04T14:50:21;1.65;;;1.02;;
13571;SDS011;6857;53.484;10.216;2022-07-04T14:52:46;2.35;;;1.23;;
13571;SDS011;6857;53.484;10.216;2022-07-04T14:55:12;3.47;;;1.23;;
13571;SDS011;6857;53.484;10.216;2022-07-04T14:57:37;1.88;;;1.13;;
13571;SDS011;6857;53.484;10.216;2022-07-04T15:00:03;5.05;;;1.02;;
13571;SDS011;6857;53.484;10.216;2022-07-04T15:02:30;3.38;;;1.10;;
13571;SDS011;6857;53.484;10.216;2022-07-04T15:04:56;5.57;;;1.35;;
13571;SDS011;6857;53.484;10.216;2022-07-04T15:07:21;3.60;;;1.55;;
13571;SDS011;6857;53.484;10.216;2022-07-04T15:09:47;4.93;;;1.30;;
13571;SDS011;6857;53.484;10.216;2022-07-04T15:12:13;9.40;;;1.95;;